createdAt,value
2018-04-17T00:00:43.924Z,99.90
2018-04-17T00:03:11.430Z,99.90
2018-04-17T00:05:38.935Z,99.90
2018-04-17T00:08:06.439Z,99.90
2018-04-17T00:10:33.940Z,99.90
2018-04-17T00:13:01.448Z,99.90
2018-04-17T00:15:29.717Z,99.90
2018-04-17T00:17:57.220Z,99.90
2018-04-17T00:20:25.531Z,99.90
2018-04-17T00:22:53.805Z,99.90
2018-04-17T00:25:22.089Z,99.90
2018-04-17T00:27:49.592Z,99.90
2018-04-17T00:30:17.218Z,99.90
2018-04-17T00:32:44.721Z,99.90
2018-04-17T00:35:12.224Z,99.90
2018-04-17T00:37:39.744Z,99.90
2018-04-17T00:40:07.245Z,99.90
2018-04-17T00:42:35.524Z,99.90
2018-04-17T00:45:03.028Z,99.90
2018-04-17T00:47:31.318Z,99.90
2018-04-17T00:49:58.900Z,99.90
2018-04-17T00:52:26.409Z,99.90
2018-04-17T00:54:54.680Z,99.90
2018-04-17T00:57:22.185Z,99.90
2018-04-17T00:59:50.456Z,99.90
2018-04-17T01:02:17.966Z,99.90
2018-04-17T01:04:46.236Z,99.90
2018-04-17T01:07:13.740Z,99.90
2018-04-17T01:09:41.362Z,99.90
2018-04-17T01:12:08.948Z,99.90
2018-04-17T01:14:36.457Z,99.90
2018-04-17T01:17:03.964Z,99.90
2018-04-17T01:19:31.476Z,99.90
2018-04-17T01:21:58.984Z,99.90
2018-04-17T01:24:27.270Z,99.90
2018-04-17T01:26:54.789Z,99.90
2018-04-17T01:29:22.293Z,99.90
2018-04-17T01:31:49.833Z,99.90
2018-04-17T01:34:18.114Z,99.90
2018-04-17T01:36:45.630Z,99.90
2018-04-17T01:39:13.137Z,99.90
2018-04-17T01:41:40.652Z,99.90
2018-04-17T01:44:08.168Z,99.90
2018-04-17T01:46:36.452Z,99.90
2018-04-17T01:49:04.052Z,99.90
2018-04-17T01:51:32.339Z,99.90
2018-04-17T01:54:00.617Z,99.90
2018-04-17T01:56:28.128Z,99.90
2018-04-17T01:58:55.728Z,99.90
2018-04-17T02:01:24.031Z,99.90
2018-04-17T02:03:52.306Z,99.90
2018-04-17T02:06:21.360Z,99.90
2018-04-17T02:08:48.869Z,99.90
2018-04-17T02:11:16.425Z,99.90
2018-04-17T02:13:44.720Z,99.90
2018-04-17T02:16:13.029Z,99.90
2018-04-17T02:18:41.305Z,99.90
2018-04-17T02:21:08.817Z,99.90
2018-04-17T02:23:37.088Z,99.90
2018-04-17T02:26:04.588Z,99.90
2018-04-17T02:28:32.189Z,99.90
2018-04-17T02:31:00.498Z,99.90
2018-04-17T02:33:28.072Z,99.90
2018-04-17T02:35:56.374Z,99.90
2018-04-17T02:38:24.683Z,99.90
2018-04-17T02:40:52.188Z,99.90
2018-04-17T02:43:19.741Z,99.90
2018-04-17T02:45:48.036Z,99.90
2018-04-17T02:48:15.632Z,99.90
2018-04-17T02:50:43.909Z,99.90
2018-04-17T02:53:11.428Z,99.90
2018-04-17T02:55:39.697Z,99.90
2018-04-17T02:58:07.208Z,99.90
2018-04-17T03:00:35.519Z,99.90
2018-04-17T03:03:03.826Z,99.90
2018-04-17T03:05:32.127Z,99.90
2018-04-17T03:08:00.394Z,99.90
2018-04-17T03:10:28.733Z,99.90
2018-04-17T03:12:56.240Z,99.90
2018-04-17T03:15:23.749Z,99.90
2018-04-17T03:17:51.243Z,99.90
2018-04-17T03:20:18.863Z,99.90
2018-04-17T03:22:47.177Z,99.90
2018-04-17T03:25:15.479Z,99.90
2018-04-17T03:27:43.757Z,99.90
2018-04-17T03:30:11.368Z,99.90
2018-04-17T03:32:38.877Z,99.90
2018-04-17T03:35:06.440Z,99.90
2018-04-17T03:37:34.007Z,99.90
2018-04-17T03:40:02.281Z,99.90
2018-04-17T03:42:29.893Z,99.90
2018-04-17T03:44:58.193Z,99.90
2018-04-17T03:47:26.472Z,99.90
2018-04-17T03:49:53.982Z,99.90
2018-04-17T03:52:22.285Z,99.90
2018-04-17T03:54:50.566Z,99.90
2018-04-17T03:57:18.075Z,99.90
2018-04-17T03:59:46.359Z,99.90
2018-04-17T04:02:13.969Z,99.90
2018-04-17T04:04:42.284Z,99.90
2018-04-17T04:07:09.853Z,99.90
2018-04-17T04:09:38.134Z,99.90
2018-04-17T04:12:05.752Z,99.90
2018-04-17T04:14:34.091Z,99.90
2018-04-17T04:20:16.321Z,99.90
2018-04-17T04:23:05.440Z,99.90
2018-04-17T04:28:41.858Z,99.90
2018-04-17T04:31:10.877Z,99.90
2018-04-17T04:33:39.195Z,99.90
2018-04-17T04:36:07.500Z,99.90
2018-04-17T04:38:35.780Z,99.90
2018-04-17T04:41:03.385Z,99.90
2018-04-17T04:43:30.899Z,99.90
2018-04-17T04:45:58.413Z,99.90
2018-04-17T04:48:25.937Z,99.90
2018-04-17T04:50:54.216Z,99.90
2018-04-17T04:53:21.837Z,99.90
2018-04-17T04:55:50.149Z,99.90
2018-04-17T04:58:18.449Z,99.90
2018-04-17T05:00:46.035Z,99.90
2018-04-17T05:03:14.345Z,99.90
2018-04-17T05:05:42.737Z,99.90
2018-04-17T05:08:10.363Z,99.90
2018-04-17T05:10:40.661Z,99.90
2018-04-17T05:13:08.178Z,99.90
2018-04-17T05:15:35.714Z,99.90
2018-04-17T05:18:03.983Z,99.90
2018-04-17T05:20:31.602Z,99.90
2018-04-17T05:22:59.905Z,99.90
2018-04-17T05:25:28.174Z,99.90
2018-04-17T05:27:55.780Z,99.90
2018-04-17T05:30:24.056Z,99.90
2018-04-17T05:32:51.555Z,99.90
2018-04-17T05:35:19.160Z,99.90
2018-04-17T05:37:47.429Z,99.90
2018-04-17T05:40:14.946Z,99.90
2018-04-17T05:42:42.467Z,99.90
2018-04-17T05:45:09.971Z,99.90
2018-04-17T05:47:37.422Z,99.90
2018-04-17T05:50:04.880Z,99.90
2018-04-17T05:52:32.416Z,99.90
2018-04-17T05:55:00.445Z,99.90
2018-04-17T05:57:27.972Z,99.90
2018-04-17T05:59:55.423Z,99.90
2018-04-17T06:02:22.877Z,99.90
2018-04-17T06:04:51.093Z,99.90
2018-04-17T06:07:18.543Z,99.90
2018-04-17T06:09:46.814Z,99.90
2018-04-17T06:12:14.269Z,99.90
2018-04-17T06:14:41.720Z,99.90
2018-04-17T06:17:09.938Z,99.90
2018-04-17T06:19:38.280Z,99.80
2018-04-17T06:22:05.741Z,99.80
2018-04-17T06:24:33.205Z,99.00
2018-04-17T06:27:01.453Z,97.80
2018-04-17T06:29:28.956Z,97.80
2018-04-17T06:31:56.428Z,97.80
2018-04-17T06:34:23.908Z,97.80
2018-04-17T06:36:51.374Z,97.90
2018-04-17T06:39:18.877Z,98.40
2018-04-17T06:41:46.442Z,98.50
2018-04-17T06:44:13.845Z,98.00
2018-04-17T06:46:41.330Z,97.30
2018-04-17T06:49:08.805Z,96.90
2018-04-17T06:51:36.284Z,97.20
2018-04-17T06:54:03.766Z,97.70
2018-04-17T06:56:31.244Z,97.60
2018-04-17T06:58:58.703Z,97.90
2018-04-17T07:01:26.932Z,98.20
2018-04-17T07:03:54.433Z,98.10
2018-04-17T07:06:21.911Z,97.80
2018-04-17T07:08:49.392Z,98.50
2018-04-17T07:11:17.701Z,97.90
2018-04-17T07:13:45.165Z,97.90
2018-04-17T07:16:12.632Z,97.40
2018-04-17T07:18:40.145Z,96.40
2018-04-17T07:21:07.633Z,96.90
2018-04-17T07:23:35.093Z,97.50
2018-04-17T07:26:02.591Z,97.80
2018-04-17T07:28:30.168Z,96.90
2018-04-17T07:30:57.633Z,95.00
2018-04-17T07:33:25.128Z,91.60
2018-04-17T07:35:52.580Z,85.00
2018-04-17T07:38:20.220Z,73.30
2018-04-17T07:40:47.673Z,67.60
2018-04-17T07:43:15.129Z,65.10
2018-04-17T07:45:42.589Z,63.10
2018-04-17T07:48:23.548Z,53.10
2018-04-17T07:50:51.029Z,53.00
2018-04-17T07:53:18.496Z,52.70
2018-04-17T07:55:45.976Z,49.40
2018-04-17T07:58:12.996Z,47.50
2018-04-17T08:00:40.473Z,44.10
2018-04-17T08:03:07.924Z,46.80
2018-04-17T08:05:35.393Z,46.60
2018-04-17T08:08:02.888Z,46.00
2018-04-17T08:10:30.376Z,42.90
2018-04-17T08:12:57.870Z,42.50
2018-04-17T08:15:25.338Z,40.50
2018-04-17T08:17:52.437Z,41.20
2018-04-17T08:20:19.507Z,39.60
2018-04-17T08:22:46.585Z,41.60
2018-04-17T08:25:14.059Z,40.40
2018-04-17T08:27:41.626Z,37.90
2018-04-17T08:30:09.118Z,35.30
2018-04-17T08:32:36.580Z,35.40
2018-04-17T08:35:04.072Z,36.60
2018-04-17T08:37:31.542Z,36.60
2018-04-17T08:39:59.037Z,36.60
2018-04-17T08:42:26.513Z,34.10
2018-04-17T08:44:54.023Z,33.00
2018-04-17T08:47:21.486Z,33.60
2018-04-17T08:49:48.957Z,36.30
2018-04-17T08:52:16.405Z,36.50
2018-04-17T08:54:43.873Z,35.20
2018-04-17T08:57:12.133Z,30.40
2018-04-17T08:59:39.608Z,30.30
2018-04-17T09:02:07.067Z,29.30
2018-04-17T09:04:34.570Z,29.20
2018-04-17T09:07:02.031Z,29.70
2018-04-17T09:09:29.549Z,29.50
2018-04-17T09:11:57.052Z,27.50
2018-04-17T09:14:24.517Z,28.00
2018-04-17T09:16:52.000Z,28.40
2018-04-17T09:19:19.462Z,26.60
2018-04-17T09:21:46.912Z,25.40
2018-04-17T09:24:15.141Z,26.30
2018-04-17T09:26:42.597Z,26.20
2018-04-17T09:29:10.812Z,25.50
2018-04-17T09:31:38.271Z,25.40
2018-04-17T09:34:05.723Z,25.50
2018-04-17T09:36:33.184Z,25.60
2018-04-17T09:39:00.684Z,25.20
2018-04-17T09:41:28.145Z,26.40
2018-04-17T09:43:55.659Z,26.00
2018-04-17T09:46:23.138Z,25.30
2018-04-17T09:48:50.634Z,24.50
2018-04-17T09:51:18.102Z,25.50
2018-04-17T09:53:45.555Z,27.40
2018-04-17T09:56:13.010Z,26.60
2018-04-17T09:58:41.257Z,28.40
2018-04-17T10:03:47.207Z,29.80
2018-04-17T10:06:14.672Z,28.20
2018-04-17T10:08:42.255Z,28.40
2018-04-17T10:11:09.716Z,27.50
2018-04-17T10:13:37.287Z,27.10
2018-04-17T10:16:04.742Z,28.20
2018-04-17T10:18:32.203Z,28.40
2018-04-17T10:20:59.660Z,26.30
2018-04-17T10:23:27.124Z,24.70
2018-04-17T10:25:54.693Z,25.00
2018-04-17T10:28:22.159Z,27.60
2018-04-17T10:30:49.634Z,25.70
2018-04-17T10:33:17.100Z,27.80
2018-04-17T10:35:44.669Z,28.80
2018-04-17T10:38:12.236Z,28.70
2018-04-17T10:40:39.707Z,26.30
2018-04-17T10:43:07.165Z,25.50
2018-04-17T10:45:34.616Z,26.30
2018-04-17T10:48:02.122Z,25.30
2018-04-17T10:50:29.581Z,26.80
2018-04-17T10:52:57.037Z,28.50
2018-04-17T10:55:24.557Z,27.60
2018-04-17T10:57:52.098Z,26.70
2018-04-17T11:00:19.554Z,28.30
2018-04-17T11:02:47.023Z,28.80
2018-04-17T11:05:14.501Z,29.20
2018-04-17T11:07:42.004Z,30.70
2018-04-17T11:10:09.474Z,30.10
2018-04-17T11:12:37.034Z,29.60
2018-04-17T11:15:04.500Z,27.60
2018-04-17T11:17:31.966Z,28.40
2018-04-17T11:19:59.425Z,27.90
2018-04-17T11:22:26.883Z,27.00
2018-04-17T11:24:54.346Z,27.70
2018-04-17T11:27:21.811Z,28.70
2018-04-17T11:29:49.277Z,28.00
2018-04-17T11:32:16.757Z,27.60
2018-04-17T11:34:44.241Z,28.30
2018-04-17T11:37:11.692Z,29.80
2018-04-17T11:39:39.201Z,28.10
2018-04-17T11:42:06.775Z,28.90
2018-04-17T11:44:34.238Z,31.20
2018-04-17T11:47:01.699Z,32.50
2018-04-17T11:49:29.163Z,30.50
2018-04-17T11:51:56.633Z,29.80
2018-04-17T11:54:24.095Z,33.10
2018-04-17T11:56:51.566Z,33.30
2018-04-17T11:59:19.021Z,35.70
2018-04-17T12:01:46.575Z,36.20
2018-04-17T12:04:14.035Z,37.30
2018-04-17T12:06:41.538Z,39.80
2018-04-17T12:09:09.033Z,40.00
2018-04-17T12:11:36.633Z,39.20
2018-04-17T12:14:04.091Z,38.90
2018-04-17T12:16:31.612Z,39.80
2018-04-17T12:18:59.060Z,38.30
2018-04-17T12:21:26.532Z,34.60
2018-04-17T12:23:54.063Z,32.10
2018-04-17T12:26:21.535Z,32.80
2018-04-17T12:28:49.048Z,31.20
2018-04-17T12:31:16.524Z,32.60
2018-04-17T12:33:43.994Z,30.10
2018-04-17T12:36:11.455Z,28.60
2018-04-17T12:38:38.915Z,31.50
2018-04-17T12:41:06.392Z,30.90
2018-04-17T12:43:33.855Z,30.70
2018-04-17T12:46:01.347Z,29.90
2018-04-17T12:48:28.847Z,29.90
2018-04-17T12:50:56.314Z,29.50
2018-04-17T12:53:23.841Z,31.30
2018-04-17T12:55:51.361Z,32.20
2018-04-17T12:58:18.818Z,29.90
2018-04-17T13:00:46.279Z,29.70
2018-04-17T13:03:13.770Z,30.10
2018-04-17T13:05:41.251Z,28.90
2018-04-17T13:08:08.715Z,32.10
2018-04-17T13:10:36.175Z,31.30
2018-04-17T13:13:03.637Z,31.10
2018-04-17T13:15:31.975Z,32.10
2018-04-17T13:17:59.432Z,31.60
2018-04-17T13:20:26.898Z,28.90
2018-04-17T13:22:54.379Z,31.30
2018-04-17T13:25:21.851Z,29.10
2018-04-17T13:27:49.321Z,30.90
2018-04-17T13:30:16.792Z,29.60
2018-04-17T13:32:44.384Z,29.10
2018-04-17T13:35:11.887Z,28.30
2018-04-17T13:37:39.379Z,29.00
2018-04-17T14:14:40.593Z,32.40
2018-04-17T14:17:08.060Z,31.20
2018-04-17T14:19:35.584Z,36.00
2018-04-17T14:22:03.127Z,32.60
2018-04-17T14:41:47.477Z,32.20
2018-04-17T15:01:30.868Z,28.90
2018-04-17T15:21:14.356Z,32.20
2018-04-17T15:26:34.523Z,32.40
2018-04-17T15:29:01.975Z,33.00
2018-04-17T15:48:46.068Z,35.90
2018-04-17T16:11:22.898Z,38.60
2018-04-17T16:16:50.451Z,37.60
2018-04-17T16:19:17.938Z,35.70
2018-04-17T16:39:01.650Z,36.60
2018-04-17T16:41:29.422Z,37.50
2018-04-17T17:01:13.688Z,40.30
2018-04-17T17:03:41.180Z,38.50
2018-04-17T17:06:08.725Z,41.20
2018-04-17T17:08:36.207Z,39.80
2018-04-17T17:28:20.995Z,41.10
2018-04-17T17:30:48.520Z,41.00
2018-04-17T17:50:32.348Z,45.00
2018-04-17T18:10:17.893Z,55.70
2018-04-17T18:12:45.350Z,57.50
2018-04-17T18:46:53.412Z,75.90
2018-04-17T19:06:36.939Z,84.70
2018-04-17T19:26:21.641Z,88.40
2018-04-17T19:28:49.195Z,87.70
2018-04-17T19:31:16.682Z,87.20
2018-04-17T19:51:01.655Z,90.00
2018-04-17T19:53:29.125Z,90.10
2018-04-17T19:58:49.020Z,90.40
2018-04-17T20:01:16.553Z,90.80
2018-04-17T20:03:44.054Z,91.00
2018-04-17T20:06:11.531Z,91.70
2018-04-17T20:08:39.116Z,92.10
2018-04-17T20:11:06.669Z,91.90
2018-04-17T20:13:34.137Z,92.50
2018-04-17T20:16:01.602Z,92.50
2018-04-17T20:18:29.077Z,92.10
2018-04-17T20:20:56.546Z,92.10
2018-04-17T20:23:24.049Z,92.30
2018-04-17T20:25:51.520Z,92.40
2018-04-17T20:28:19.047Z,92.60
2018-04-17T21:02:26.997Z,92.50
2018-04-17T21:04:54.489Z,92.90
2018-04-17T21:07:21.963Z,93.40
2018-04-17T21:09:49.480Z,93.00
2018-04-17T21:12:16.945Z,92.50
2018-04-17T21:14:44.407Z,92.30
2018-04-17T21:17:11.868Z,92.40
2018-04-17T21:19:39.328Z,92.40
2018-04-17T21:22:06.790Z,91.60
2018-04-17T21:24:34.303Z,91.20
2018-04-17T21:27:01.871Z,91.10
2018-04-17T21:29:29.335Z,91.90
2018-04-17T21:31:56.861Z,91.90
2018-04-17T21:34:24.408Z,92.20
2018-04-17T21:36:51.971Z,92.80
2018-04-17T21:39:19.445Z,92.70
2018-04-17T21:41:46.913Z,93.10
2018-04-17T21:44:14.374Z,92.80
2018-04-17T21:46:41.856Z,92.50
2018-04-17T21:49:09.349Z,92.20
2018-04-17T21:51:36.810Z,92.40
2018-04-17T21:54:04.320Z,92.30
2018-04-17T21:56:31.806Z,92.30
2018-04-17T21:58:59.279Z,91.80
2018-04-17T22:01:28.658Z,92.50
2018-04-17T22:03:56.131Z,92.40
2018-04-17T22:06:23.598Z,92.70
2018-04-17T22:08:51.110Z,93.40
2018-04-17T22:11:18.578Z,93.40
2018-04-17T22:13:46.046Z,93.20
2018-04-17T22:16:13.526Z,93.10
2018-04-17T22:18:41.026Z,93.20
2018-04-17T22:21:08.489Z,93.30
2018-04-17T22:23:35.952Z,93.60
2018-04-17T22:26:03.455Z,94.20
2018-04-17T22:28:30.937Z,94.60
2018-04-17T22:30:58.392Z,94.60
2018-04-17T22:33:25.860Z,94.80
2018-04-17T22:35:53.334Z,95.00
2018-04-17T22:38:20.832Z,95.60
2018-04-17T22:40:48.293Z,95.10
2018-04-17T22:43:15.752Z,95.70
2018-04-17T22:45:43.206Z,96.00
2018-04-17T22:48:10.664Z,96.10
2018-04-17T22:50:38.129Z,96.00
2018-04-17T23:10:22.268Z,96.60
2018-04-17T23:12:49.736Z,97.00
2018-04-17T23:15:17.200Z,96.60
2018-04-17T23:17:44.737Z,96.20
2018-04-17T23:20:12.188Z,96.30
2018-04-17T23:22:39.701Z,96.50
2018-04-17T23:25:07.185Z,96.90
2018-04-17T23:27:34.652Z,96.90
2018-04-17T23:30:02.125Z,96.70
2018-04-17T23:49:44.665Z,98.30
2018-04-17T23:52:12.140Z,98.30
2018-04-17T23:54:39.640Z,98.50
2018-04-17T23:57:07.146Z,98.50
2018-04-17T23:59:34.604Z,98.10
